KGPT/GPT METAR and TAF weather

Enter ICAO airport designator
Station Type Date Time Source
KGPT METAR 2019/04/22 17:53 UTC NOAA

KGPT 221753Z 15007KT 10SM CLR 23/12 A3021 RMK AO2 SLP228 T02280117 10233 20106 50003


Station Type Date Time Source
KGPT Decoded METAR 2019/04/22 17:53 UTC NOAA

GULFPORT-BILOXI REG AIRPORT , MS, United States (KGPT) 30-25N 089-05W 14M
Apr 22, 2019 - 01:53 PM EDT / 2019.04.22 1753 UTC
Wind: from the SSE (150 degrees) at 8 MPH (7 KT):0
Visibility: 10 mile(s):0
Sky conditions: clear
Temperature: 73.0 F (22.8 C)
Dew Point: 53.1 F (11.7 C)
Relative Humidity: 49%
Pressure (altimeter): 30.21 in. Hg (1023 hPa)
Pressure tendency: 0.01 inches (0.3 hPa) higher than three hours ago
ob: KGPT 221753Z 15007KT 10SM CLR 23/12 A3021 RMK AO2 SLP228 T02280117 10233 20106 50003
cycle: 18

Station Type Date Time Source
KGPT TAF 2019/04/22 18:33 UTC NOAA

TAF KGPT 221730Z 2218/2318 15010KT P6SM FEW250
FM230100 17004KT P6SM FEW250
FM231600 14008KT P6SM FEW030 SCT200

Example: see airport list